LGKR

Corfu International

Airport
ICAO code
LGKR
IATA Code
CFU
Summary
ICAO Region
EUR
ICAO Territory
Location

Pontikonisi, Corfu

Serving
Corfu
Elevation
6 ft
Coordinates
39° 36' 7" N , 19° 54' 42" E
KCC
Airport WX
Cumulonimbus
Metar
Observation
LGKR 032120Z 00000KT CAVOK 20/15 Q1011 NOSIG
Station
Kerkyra Airport
Date/Time
2022-10-03 21:20:00
Wind direction
Wind speed
00 kts
Lowest cloud amount
clouds and visibility OK
Temperature
20°C
Dew point
15°C
Humidity
72%
QNH
1011 hPa
Weather condition
n/a

Description

Corfu International Airport, "Ioannis Kapodistrias" or Ioannis Kapodistrias (Capodistrias) International Airport (IATA: CFU) is an airport on the Greek island of Corfu at Kerkyra, serving both scheduled and charter flights from European cities. The airport is located around 3 km south of Corfu Town, half a kilometre north of Pontikonisi.

Climatology

Dry-summer subtropical ”Mediterranean" climate (Köppen climate classification Csa) - characterized by hot, dry summers and mild winters. During the summer, subtropical high pressure cells dominate, making rainfall unlikely except for the occasional thunderstorm. In the winter, periodic storms bring rain (snow at higher elevations).

Runways

Designator Length Width Surface Rops
17/35 2375 45 ASP Yes/Yes

Airport map

Aerial View

SKYbrary Partners:

Safety knowledge contributed by: